Time;durP1;ratioP1;P1;durP2;ratioP2;P2;SDS_P1;SDS_P2;PMS_P1;PMS_P2;Temp;Humidity;BMP_temperature;BMP_pressure;BME280_temperature;BME280_humidity;BME280_pressure;Samples;Min_cycle;Max_cycle;Signal;HPM_P1;HPM_P2
2022/01/18 00:01:20;;;;;;;18.27;2.42;;;;;;;;;;4977540;28;20047;-93
2022/01/18 00:03:47;;;;;;;25.45;2.85;;;;;;;;;;4977856;28;20063;-93
2022/01/18 00:06:14;;;;;;;21.90;2.47;;;;;;;;;;4977842;28;20051;-93
2022/01/18 00:08:40;;;;;;;27.02;2.78;;;;;;;;;;4978235;28;20186;-93
2022/01/18 00:11:38;;;;;;;23.60;3.35;;;;;;;;;;4978377;28;20035;-93
2022/01/18 00:14:12;;;;;;;;;;;;;;;;;;4977474;28;20050;-93
2022/01/18 00:17:00;;;;;;;18.40;3.92;;;;;;;;;;4977608;28;19910;-93
2022/01/18 00:19:54;;;;;;;17.77;2.70;;;;;;;;;;4977349;28;20059;-92
2022/01/18 00:22:26;;;;;;;15.93;2.15;;;;;;;;;;4978630;28;20039;-94
2022/01/18 00:24:54;;;;;;;27.95;3.88;;;;;;;;;;4978686;28;20171;-93
2022/01/18 00:27:38;;;;;;;15.85;2.60;;;;;;;;;;4979544;28;20110;-93
2022/01/18 00:30:27;;;;;;;20.75;2.10;;;;;;;;;;4979238;28;20035;-93
2022/01/18 00:33:12;;;;;;;15.13;1.92;;;;;;;;;;4979316;28;20063;-92
2022/01/18 00:35:42;;;;;;;21.00;3.13;;;;;;;;;;4979180;28;20093;-94
2022/01/18 00:38:27;;;;;;;22.23;3.10;;;;;;;;;;4978992;28;20054;-94
2022/01/18 00:40:55;;;;;;;21.70;3.88;;;;;;;;;;4979192;28;20067;-93
2022/01/18 00:43:24;;;;;;;20.50;2.92;;;;;;;;;;4979169;28;20043;-94
2022/01/18 00:58:34;;;;;;;21.42;2.70;;;;;;;;;;4979584;28;20062;-93
2022/01/18 01:01:00;;;;;;;15.15;2.08;;;;;;;;;;4979056;28;20075;-93
2022/01/18 01:03:33;;;;;;;16.90;2.75;;;;;;;;;;4978684;28;20043;-93
2022/01/18 01:06:01;;;;;;;13.48;2.38;;;;;;;;;;4978717;28;20055;-93
2022/01/18 01:08:29;;;;;;;15.43;2.00;;;;;;;;;;4978435;28;20043;-93
2022/01/18 01:10:57;;;;;;;19.27;2.40;;;;;;;;;;4978232;28;20070;-94
2022/01/18 01:13:29;;;;;;;16.17;2.33;;;;;;;;;;4978663;28;20051;-93
2022/01/18 01:16:22;;;;;;;12.75;1.92;;;;;;;;;;4978435;28;20035;-94
2022/01/18 01:44:51;;;;;;;13.43;1.70;;;;;;;;;;4958836;28;20054;-94
2022/01/18 01:47:20;;;;;;;9.40;1.58;;;;;;;;;;4943126;28;20066;-95
2022/01/18 01:49:50;;;;;;;18.23;1.95;;;;;;;;;;4971035;28;20250;-93
2022/01/18 01:52:55;;;;;;;11.82;1.88;;;;;;;;;;4978209;28;20047;-95
2022/01/18 01:55:23;;;;;;;9.75;1.73;;;;;;;;;;4978139;28;20043;-94
2022/01/18 01:57:50;;;;;;;15.93;2.35;;;;;;;;;;4977843;28;20035;-95
2022/01/18 02:00:18;;;;;;;16.63;1.73;;;;;;;;;;4978243;28;20043;-95
2022/01/18 02:03:23;;;;;;;8.98;1.65;;;;;;;;;;4978202;28;20062;-95
2022/01/18 02:05:50;;;;;;;13.00;1.98;;;;;;;;;;4978236;28;20055;-95
2022/01/18 02:08:17;;;;;;;15.15;2.05;;;;;;;;;;4978222;28;20055;-94
2022/01/18 02:10:45;;;;;;;20.52;2.53;;;;;;;;;;4977998;28;20075;-94
2022/01/18 02:13:12;;;;;;;13.48;1.40;;;;;;;;;;4977491;28;20039;-94
2022/01/18 02:15:48;;;;;;;16.58;2.33;;;;;;;;;;4977814;28;20083;-94
2022/01/18 02:23:51;;;;;;;13.45;2.08;;;;;;;;;;4978182;28;20051;-94
2022/01/18 02:26:17;;;;;;;10.93;2.20;;;;;;;;;;4977468;28;20035;-94
2022/01/18 02:28:44;;;;;;;26.17;2.65;;;;;;;;;;4978227;28;20039;-95
2022/01/18 02:31:11;;;;;;;7.15;1.40;;;;;;;;;;4981063;28;20058;-94
2022/01/18 02:33:38;;;;;;;10.82;1.85;;;;;;;;;;4980956;28;20082;-94
2022/01/18 02:36:08;;;;;;;19.00;2.55;;;;;;;;;;4981086;28;20047;-93
2022/01/18 02:38:34;;;;;;;13.50;1.40;;;;;;;;;;4981008;28;20063;-94
2022/01/18 02:41:01;;;;;;;14.07;2.10;;;;;;;;;;4981342;28;20039;-94
2022/01/18 02:43:50;;;;;;;10.48;1.55;;;;;;;;;;4981094;28;20035;-94
2022/01/18 02:46:18;;;;;;;18.27;2.67;;;;;;;;;;4980989;28;20074;-94
2022/01/18 02:48:44;;;;;;;19.02;2.42;;;;;;;;;;4981018;28;20107;-94
2022/01/18 02:51:12;;;;;;;9.75;1.60;;;;;;;;;;4980639;28;20055;-94
2022/01/18 02:54:00;;;;;;;15.15;1.80;;;;;;;;;;4980794;28;20039;-94
2022/01/18 02:56:32;;;;;;;24.17;3.63;;;;;;;;;;4980869;28;20059;-94
2022/01/18 02:59:08;;;;;;;15.25;2.38;;;;;;;;;;4980776;28;20039;-93
2022/01/18 03:04:24;;;;;;;20.00;2.97;;;;;;;;;;4981689;28;20062;-93
2022/01/18 03:06:51;;;;;;;23.58;3.20;;;;;;;;;;4981147;28;20039;-94
2022/01/18 03:09:18;;;;;;;10.75;2.47;;;;;;;;;;4980755;28;20046;-94
2022/01/18 03:11:45;;;;;;;24.38;2.63;;;;;;;;;;4981048;28;20063;-94
2022/01/18 03:14:16;;;;;;;23.42;3.60;;;;;;;;;;4981207;28;20047;-94
2022/01/18 03:16:42;;;;;;;18.38;3.17;;;;;;;;;;4980791;28;20050;-92
2022/01/18 03:19:18;;;;;;;18.73;2.42;;;;;;;;;;4980488;28;20086;-94
2022/01/18 03:21:46;;;;;;;20.55;2.50;;;;;;;;;;4980524;28;20046;-94
2022/01/18 03:30:17;;;;;;;14.57;2.13;;;;;;;;;;4981520;28;20031;-94
2022/01/18 03:32:44;;;;;;;17.00;2.20;;;;;;;;;;4980338;28;20122;-94
2022/01/18 03:35:12;;;;;;;16.70;2.35;;;;;;;;;;4980087;28;20126;-93
2022/01/18 03:37:39;;;;;;;15.68;2.03;;;;;;;;;;4980447;28;20055;-94
2022/01/18 03:40:07;;;;;;;18.55;2.33;;;;;;;;;;4979876;28;20039;-93
2022/01/18 03:42:39;;;;;;;17.75;2.50;;;;;;;;;;4980181;28;20043;-94
2022/01/18 03:45:06;;;;;;;27.15;2.78;;;;;;;;;;4979978;28;20063;-94
2022/01/18 03:54:00;;;;;;;20.48;3.00;;;;;;;;;;4980814;28;20046;-94
2022/01/18 03:56:27;;;;;;;25.27;3.53;;;;;;;;;;4979734;28;20050;-94
2022/01/18 03:58:54;;;;;;;18.65;3.40;;;;;;;;;;4980155;28;20074;-94
2022/01/18 04:01:21;;;;;;;26.98;3.75;;;;;;;;;;4979790;28;20071;-94
2022/01/18 04:03:51;;;;;;;28.25;3.85;;;;;;;;;;4979634;28;20128;-94
2022/01/18 04:06:19;;;;;;;26.80;4.28;;;;;;;;;;4980019;28;20043;-94
2022/01/18 04:08:46;;;;;;;32.17;4.35;;;;;;;;;;4978867;28;20043;-94
2022/01/18 04:11:19;;;;;;;29.00;3.83;;;;;;;;;;4980090;28;20075;-94
2022/01/18 04:13:46;;;;;;;33.33;4.25;;;;;;;;;;4979396;28;20034;-93
2022/01/18 04:16:13;;;;;;;38.20;5.13;;;;;;;;;;4979001;28;20187;-93
2022/01/18 04:19:33;;;;;;;35.08;5.00;;;;;;;;;;4979328;28;20039;-93
2022/01/18 04:25:52;;;;;;;40.22;6.57;;;;;;;;;;4979929;28;20047;-92
2022/01/18 04:27:20;;;;;;;39.05;5.72;;;;;;;;;;4979841;28;20174;-93
2022/01/18 04:29:52;;;;;;;35.22;4.90;;;;;;;;;;4979749;28;20067;-93
2022/01/18 04:57:51;;;;;;;36.17;5.00;;;;;;;;;;5165655;23;20042;-94
2022/01/18 04:59:14;;;;;;;46.08;5.32;;;;;;;;;;4979086;28;20051;-94
2022/01/18 05:01:42;;;;;;;42.22;5.50;;;;;;;;;;4978529;28;20039;-94
2022/01/18 05:04:16;;;;;;;50.95;4.95;;;;;;;;;;4978165;28;20055;-93
2022/01/18 05:06:43;;;;;;;33.15;4.88;;;;;;;;;;4978338;28;20043;-95
2022/01/18 05:09:11;;;;;;;39.25;5.80;;;;;;;;;;4978550;28;20039;-93
2022/01/18 05:12:06;;;;;;;38.33;5.28;;;;;;;;;;4978140;28;20049;-94
2022/01/18 05:14:34;;;;;;;80.03;7.00;;;;;;;;;;4975006;28;20051;-93
2022/01/18 05:20:24;;;;;;;42.05;5.43;;;;;;;;;;4974603;29;20059;-94
2022/01/18 05:23:00;;;;;;;45.53;5.53;;;;;;;;;;4970967;28;20051;-93
2022/01/18 05:25:29;;;;;;;33.15;5.72;;;;;;;;;;4972477;29;20047;-93
2022/01/18 05:27:57;;;;;;;49.60;6.10;;;;;;;;;;4971096;29;20078;-93
2022/01/18 05:30:24;;;;;;;51.72;5.72;;;;;;;;;;4971026;29;20061;-94
2022/01/18 05:32:51;;;;;;;58.63;7.00;;;;;;;;;;4971767;29;20051;-93
2022/01/18 05:35:19;;;;;;;40.22;5.72;;;;;;;;;;4969947;29;20113;-93
2022/01/18 05:37:47;;;;;;;35.42;4.88;;;;;;;;;;4970880;29;20117;-94
2022/01/18 05:43:49;;;;;;;48.38;6.63;;;;;;;;;;4979523;28;20026;-92
2022/01/18 05:46:16;;;;;;;43.75;5.20;;;;;;;;;;4978728;28;20062;-93
2022/01/18 05:48:46;;;;;;;47.55;6.70;;;;;;;;;;4978524;28;20042;-94
2022/01/18 05:51:13;;;;;;;39.25;5.85;;;;;;;;;;4978533;28;20055;-93
2022/01/18 05:53:41;;;;;;;38.00;4.68;;;;;;;;;;4977924;28;20051;-94
2022/01/18 05:56:11;;;;;;;43.42;5.80;;;;;;;;;;4978168;28;20099;-93
2022/01/18 06:09:36;;;;;;;38.38;4.93;;;;;;;;;;4984077;29;20035;-94
2022/01/18 06:12:11;;;;;;;40.17;6.73;;;;;;;;;;4983693;29;20031;-94
2022/01/18 06:14:38;;;;;;;41.65;5.03;;;;;;;;;;4983458;29;20431;-94
2022/01/18 06:30:50;;;;;;;46.60;5.50;;;;;;;;;;5118184;23;20043;-94
2022/01/18 06:33:17;;;;;;;45.88;6.22;;;;;;;;;;4981692;28;20039;-94
2022/01/18 06:35:48;;;;;;;38.10;6.63;;;;;;;;;;4981083;28;20067;-93
2022/01/18 06:38:16;;;;;;;35.75;5.82;;;;;;;;;;4981101;28;20043;-94
2022/01/18 06:40:45;;;;;;;39.60;6.13;;;;;;;;;;4980695;28;20051;-93
2022/01/18 06:46:03;;;;;;;30.67;4.22;;;;;;;;;;4981238;28;20099;-94
2022/01/18 06:48:31;;;;;;;37.08;5.45;;;;;;;;;;4981098;28;20035;-94
2022/01/18 06:51:21;;;;;;;39.50;4.93;;;;;;;;;;4981194;28;20066;-93
2022/01/18 06:53:51;;;;;;;43.72;5.32;;;;;;;;;;4981422;28;20050;-93
2022/01/18 06:56:20;;;;;;;49.67;6.65;;;;;;;;;;4981434;28;20059;-94
2022/01/18 06:59:16;;;;;;;40.50;4.97;;;;;;;;;;4980778;28;20055;-94
2022/01/18 07:01:44;;;;;;;44.20;5.95;;;;;;;;;;4981100;28;20082;-93
2022/01/18 07:09:32;;;;;;;40.20;6.15;;;;;;;;;;5259914;23;20091;-94
2022/01/18 07:12:08;;;;;;;33.45;5.38;;;;;;;;;;4981083;28;20046;-92
2022/01/18 07:14:35;;;;;;;36.63;5.78;;;;;;;;;;4980119;28;20043;-93
2022/01/18 07:17:38;;;;;;;41.03;5.43;;;;;;;;;;4980897;28;20043;-93
2022/01/18 07:20:08;;;;;;;48.00;6.00;;;;;;;;;;4980726;28;20047;-93
2022/01/18 07:22:42;;;;;;;41.80;6.28;;;;;;;;;;4980486;28;20091;-93
2022/01/18 07:25:12;;;;;;;32.67;6.60;;;;;;;;;;4980440;28;20049;-94
2022/01/18 07:27:40;;;;;;;28.15;5.63;;;;;;;;;;4980592;28;20157;-93
2022/01/18 07:30:13;;;;;;;41.65;6.95;;;;;;;;;;4980315;28;20047;-93
2022/01/18 07:32:45;;;;;;;44.30;5.63;;;;;;;;;;4980304;28;20063;-93
2022/01/18 07:35:13;;;;;;;29.35;5.03;;;;;;;;;;4980086;28;20268;-93
2022/01/18 07:41:36;;;;;;;36.05;5.97;;;;;;;;;;4980687;28;20054;-93
2022/01/18 07:44:03;;;;;;;33.15;4.55;;;;;;;;;;4980096;28;20043;-93
2022/01/18 07:46:34;;;;;;;45.00;5.50;;;;;;;;;;4980098;28;20070;-95
2022/01/18 07:49:01;;;;;;;29.95;4.03;;;;;;;;;;4980184;28;20043;-94
2022/01/18 07:52:03;;;;;;;38.15;5.35;;;;;;;;;;4980658;28;20051;-92
2022/01/18 07:54:30;;;;;;;34.05;4.22;;;;;;;;;;4980237;28;20046;-93
2022/01/18 07:56:58;;;;;;;39.42;4.25;;;;;;;;;;4980346;28;20046;-93
2022/01/18 08:00:02;;;;;;;38.17;3.63;;;;;;;;;;4980092;28;20083;-94
2022/01/18 08:02:33;;;;;;;;;;;;;;;;;;4980494;28;20103;-93
2022/01/18 08:05:01;;;;;;;37.88;4.38;;;;;;;;;;4980440;28;19906;-95
2022/01/18 08:07:58;;;;;;;33.67;4.63;;;;;;;;;;4979918;28;20035;-93
2022/01/18 08:13:14;;;;;;;33.72;3.63;;;;;;;;;;5265032;23;19977;-94
2022/01/18 08:15:43;;;;;;;24.10;3.25;;;;;;;;;;4979813;28;20035;-95
2022/01/18 08:18:12;;;;;;;34.40;5.55;;;;;;;;;;4979872;28;20042;-94
2022/01/18 08:20:53;;;;;;;25.20;4.25;;;;;;;;;;4978747;28;20090;-94
2022/01/18 08:30:19;;;;;;;43.45;4.53;;;;;;;;;;4980292;28;20087;-94
2022/01/18 08:32:48;;;;;;;31.70;4.20;;;;;;;;;;4979873;28;20039;-94
2022/01/18 08:35:16;;;;;;;23.80;3.47;;;;;;;;;;4979992;28;20039;-93
2022/01/18 08:37:46;;;;;;;24.25;3.30;;;;;;;;;;4979951;28;20038;-94
2022/01/18 08:43:39;;;;;;;28.73;4.30;;;;;;;;;;4980027;28;20042;-95
2022/01/18 08:46:08;;;;;;;30.23;4.10;;;;;;;;;;4979379;28;20055;-94
2022/01/18 08:48:38;;;;;;;28.40;3.70;;;;;;;;;;4979607;28;20046;-93
2022/01/18 08:57:54;;;;;;;29.30;3.78;;;;;;;;;;4979973;28;20095;-94
2022/01/18 09:00:21;;;;;;;31.15;5.22;;;;;;;;;;4978778;28;20086;-94
2022/01/18 09:02:49;;;;;;;23.85;3.63;;;;;;;;;;4978836;28;20066;-92
2022/01/18 09:05:30;;;;;;;29.67;4.38;;;;;;;;;;5369208;23;20863;-94
2022/01/18 09:08:12;;;;;;;27.17;4.50;;;;;;;;;;4970010;28;20056;-94
2022/01/18 09:14:52;;;;;;;27.25;4.20;;;;;;;;;;4960119;28;20132;-95
2022/01/18 09:19:48;;;;;;;24.92;4.18;;;;;;;;;;4975293;28;20046;-94
2022/01/18 09:22:28;;;;;;;17.77;3.45;;;;;;;;;;4972382;28;20225;-93
2022/01/18 09:25:10;;;;;;;29.38;4.05;;;;;;;;;;4974713;28;20046;-94
2022/01/18 09:28:22;;;;;;;31.85;5.32;;;;;;;;;;4974605;28;20034;-93
2022/01/18 09:31:25;;;;;;;23.45;3.58;;;;;;;;;;4966198;28;20107;-93
2022/01/18 09:34:00;;;;;;;24.50;4.35;;;;;;;;;;4975469;28;20225;-94
2022/01/18 09:37:08;;;;;;;;;;;;;;;;;;;;;
2022/01/18 09:39:55;;;;;;;33.40;4.68;;;;;;;;;;4973494;28;20059;-93
2022/01/18 09:43:34;;;;;;;;;;;;;;;;;;;;;
2022/01/18 09:46:18;;;;;;;25.83;4.22;;;;;;;;;;4917983;29;20198;-95
2022/01/18 09:49:33;;;;;;;30.08;4.28;;;;;;;;;;4990480;23;20043;-94
2022/01/18 09:52:55;;;;;;;30.15;3.97;;;;;;;;;;5249878;23;20066;-95
2022/01/18 09:55:53;;;;;;;19.10;3.83;;;;;;;;;;4974576;28;20055;-95
2022/01/18 09:58:45;;;;;;;26.98;4.28;;;;;;;;;;4954500;29;20099;-94
2022/01/18 10:01:14;;;;;;;20.23;3.58;;;;;;;;;;4938559;28;20055;-95
2022/01/18 10:03:50;;;;;;;26.20;3.92;;;;;;;;;;4939102;29;20062;-95
2022/01/18 10:06:35;;;;;;;22.70;4.55;;;;;;;;;;4939841;28;20036;-93
2022/01/18 10:09:26;;;;;;;19.52;2.80;;;;;;;;;;4941273;28;20074;-93
2022/01/18 10:12:36;;;;;;;18.63;3.08;;;;;;;;;;4931762;28;20051;-94
2022/01/18 10:15:32;;;;;;;20.65;2.83;;;;;;;;;;4938721;29;20039;-94
2022/01/18 10:18:44;;;;;;;19.65;3.10;;;;;;;;;;4929259;29;20056;-93
2022/01/18 10:21:34;;;;;;;24.08;3.38;;;;;;;;;;4939549;29;20078;-94
2022/01/18 10:27:57;;;;;;;27.90;4.47;;;;;;;;;;4935626;29;20087;-93
2022/01/18 10:30:37;;;;;;;18.85;3.28;;;;;;;;;;5027804;23;20071;-94
2022/01/18 10:33:13;;;;;;;13.73;3.55;;;;;;;;;;4972813;28;20107;-94
2022/01/18 10:39:24;;;;;;;22.88;3.38;;;;;;;;;;4973200;29;20083;-94
2022/01/18 10:41:51;;;;;;;20.38;3.42;;;;;;;;;;4970645;29;20070;-94
2022/01/18 10:44:24;;;;;;;23.27;3.75;;;;;;;;;;4952972;29;20052;-93
2022/01/18 10:46:56;;;;;;;20.83;3.30;;;;;;;;;;4952876;29;20067;-93
2022/01/18 10:49:35;;;;;;;18.67;4.10;;;;;;;;;;4953381;29;20035;-94
2022/01/18 10:52:09;;;;;;;21.33;3.03;;;;;;;;;;4957304;29;20047;-93
2022/01/18 10:54:49;;;;;;;24.65;3.88;;;;;;;;;;4956791;28;20036;-94
2022/01/18 10:57:43;;;;;;;21.60;3.28;;;;;;;;;;4955755;29;20127;-93
2022/01/18 11:00:48;;;;;;;24.65;4.10;;;;;;;;;;4956302;28;20035;-93
2022/01/18 11:03:18;;;;;;;14.98;3.42;;;;;;;;;;4956183;29;20044;-94
2022/01/18 11:05:47;;;;;;;20.20;3.10;;;;;;;;;;4957021;29;20051;-95
2022/01/18 11:08:16;;;;;;;16.30;2.83;;;;;;;;;;4956260;29;20059;-94
2022/01/18 11:14:30;;;;;;;23.15;4.00;;;;;;;;;;4978076;28;20107;-93
2022/01/18 11:17:02;;;;;;;22.25;3.05;;;;;;;;;;5335832;23;20054;-94
2022/01/18 11:19:36;;;;;;;18.80;3.33;;;;;;;;;;4978554;28;20046;-94
2022/01/18 11:22:11;;;;;;;11.30;3.00;;;;;;;;;;4978995;28;20039;-95
2022/01/18 11:24:44;;;;;;;17.20;3.20;;;;;;;;;;4978803;28;20099;-94
2022/01/18 11:27:15;;;;;;;18.17;3.17;;;;;;;;;;4997939;23;20051;-94
2022/01/18 11:29:43;;;;;;;24.17;4.50;;;;;;;;;;4977782;28;20035;-94
2022/01/18 11:32:11;;;;;;;17.83;3.22;;;;;;;;;;4978903;28;20039;-93
2022/01/18 11:38:31;;;;;;;37.47;4.93;;;;;;;;;;4959589;28;20075;-94
2022/01/18 11:41:05;;;;;;;13.57;3.35;;;;;;;;;;4949706;28;20095;-93
2022/01/18 11:44:07;;;;;;;21.02;4.55;;;;;;;;;;4957247;28;20048;-93
2022/01/18 11:46:40;;;;;;;25.42;4.05;;;;;;;;;;4959089;28;20072;-94
2022/01/18 11:49:15;;;;;;;24.30;4.78;;;;;;;;;;4961283;28;20083;-94
2022/01/18 11:51:58;;;;;;;29.40;4.63;;;;;;;;;;4987819;28;20059;-94
2022/01/18 11:54:57;;;;;;;22.33;5.50;;;;;;;;;;4957374;28;20056;-95
2022/01/18 11:57:27;;;;;;;23.65;4.57;;;;;;;;;;4953935;29;20047;-94
2022/01/18 11:59:57;;;;;;;23.48;5.05;;;;;;;;;;4955633;28;20040;-94
2022/01/18 12:02:31;;;;;;;16.20;3.42;;;;;;;;;;4956420;28;20067;-93
2022/01/18 12:05:19;;;;;;;23.92;4.53;;;;;;;;;;4955403;29;20061;-93
2022/01/18 12:08:01;;;;;;;26.20;4.25;;;;;;;;;;4973479;29;20086;-94
2022/01/18 12:10:38;;;;;;;20.10;4.40;;;;;;;;;;4973908;28;20051;-93
2022/01/18 12:13:23;;;;;;;18.17;3.70;;;;;;;;;;4953037;29;20063;-92
2022/01/18 12:16:01;;;;;;;22.80;3.85;;;;;;;;;;4965249;29;20218;-94
2022/01/18 12:18:32;;;;;;;15.48;3.70;;;;;;;;;;4973476;29;20047;-94
2022/01/18 12:21:26;;;;;;;30.70;3.67;;;;;;;;;;4977341;28;20063;-94
2022/01/18 12:27:27;;;;;;;21.33;3.60;;;;;;;;;;4979180;28;20098;-93
2022/01/18 12:30:15;;;;;;;18.17;4.45;;;;;;;;;;4980071;28;20043;-93
2022/01/18 12:32:56;;;;;;;18.48;3.75;;;;;;;;;;4974895;28;20111;-94
2022/01/18 12:35:45;;;;;;;19.75;4.97;;;;;;;;;;4973946;28;20046;-93
2022/01/18 12:38:20;;;;;;;;;;;;;;;;;;4956916;29;20267;-93
2022/01/18 12:40:54;;;;;;;20.00;3.80;;;;;;;;;;4953142;29;19949;-94
2022/01/18 12:46:22;;;;;;;21.85;4.32;;;;;;;;;;4954531;29;20316;-93
2022/01/18 12:48:56;;;;;;;20.73;4.50;;;;;;;;;;4957343;28;20055;-94
2022/01/18 12:51:35;;;;;;;20.77;5.13;;;;;;;;;;4955025;28;20100;-94
2022/01/18 12:54:04;;;;;;;21.70;5.38;;;;;;;;;;4956192;28;20063;-94
2022/01/18 12:56:37;;;;;;;23.10;4.72;;;;;;;;;;4958117;28;20040;-95
2022/01/18 13:02:45;;;;;;;21.15;3.97;;;;;;;;;;4958738;28;20054;-95
2022/01/18 13:05:17;;;;;;;13.55;2.88;;;;;;;;;;4958723;28;20072;-94
2022/01/18 13:07:57;;;;;;;12.93;2.80;;;;;;;;;;4955466;28;20048;-95
2022/01/18 13:10:54;;;;;;;12.55;2.25;;;;;;;;;;4958702;28;20048;-94
2022/01/18 13:27:27;;;;;;;8.77;1.95;;;;;;;;;;4935433;28;20062;-93
2022/01/18 13:30:16;;;;;;;5.75;1.92;;;;;;;;;;4934127;29;20068;-94
2022/01/18 13:32:51;;;;;;;3.40;1.88;;;;;;;;;;4934130;29;20060;-94
2022/01/18 13:35:20;;;;;;;7.05;2.20;;;;;;;;;;4932222;29;20070;-94
2022/01/18 13:37:47;;;;;;;5.40;1.90;;;;;;;;;;4932565;29;20048;-94
2022/01/18 13:40:18;;;;;;;7.72;2.47;;;;;;;;;;4933193;29;20064;-95
2022/01/18 13:42:49;;;;;;;8.25;2.00;;;;;;;;;;4933825;29;20116;-94
2022/01/18 13:45:42;;;;;;;6.50;2.15;;;;;;;;;;4933101;29;20048;-94
2022/01/18 13:48:12;;;;;;;6.88;1.95;;;;;;;;;;4933353;29;20076;-94
2022/01/18 13:50:42;;;;;;;4.00;1.70;;;;;;;;;;4935430;29;20044;-95
2022/01/18 13:53:12;;;;;;;4.20;1.77;;;;;;;;;;4935836;28;20048;-94
2022/01/18 13:55:43;;;;;;;6.47;1.90;;;;;;;;;;4934931;29;20052;-95
2022/01/18 13:58:50;;;;;;;10.68;2.13;;;;;;;;;;4932712;29;20056;-94
2022/01/18 14:01:24;;;;;;;5.97;1.92;;;;;;;;;;4933943;28;20052;-94
2022/01/18 14:03:52;;;;;;;6.25;1.90;;;;;;;;;;4935983;28;20054;-94
2022/01/18 14:06:41;;;;;;;9.13;2.55;;;;;;;;;;4936612;28;20044;-95
2022/01/18 14:09:10;;;;;;;5.95;1.92;;;;;;;;;;4934003;28;20056;-94
2022/01/18 14:11:46;;;;;;;10.65;2.50;;;;;;;;;;4935071;29;20091;-94
2022/01/18 14:14:21;;;;;;;9.90;2.05;;;;;;;;;;4915678;29;20060;-94
2022/01/18 14:16:57;;;;;;;9.27;2.30;;;;;;;;;;4917066;29;20069;-94
2022/01/18 14:19:27;;;;;;;9.90;2.67;;;;;;;;;;4916558;29;20044;-94
2022/01/18 14:22:23;;;;;;;12.90;2.35;;;;;;;;;;4917487;29;20044;-94
2022/01/18 14:24:57;;;;;;;13.68;2.97;;;;;;;;;;4926339;28;20126;-94
2022/01/18 14:27:28;;;;;;;7.93;2.53;;;;;;;;;;4940488;28;20067;-92
2022/01/18 14:29:56;;;;;;;8.63;2.10;;;;;;;;;;4938681;28;20052;-93
2022/01/18 14:32:46;;;;;;;8.38;2.20;;;;;;;;;;4937201;29;20052;-94
2022/01/18 14:35:18;;;;;;;8.13;2.63;;;;;;;;;;4936383;29;20055;-93
2022/01/18 14:37:47;;;;;;;11.80;2.88;;;;;;;;;;4936624;29;20081;-93
2022/01/18 14:40:16;;;;;;;7.80;2.67;;;;;;;;;;4936854;29;20215;-93
2022/01/18 14:42:51;;;;;;;8.77;2.75;;;;;;;;;;4935846;29;20074;-94
2022/01/18 14:45:33;;;;;;;9.73;2.67;;;;;;;;;;4936457;29;20063;-93
2022/01/18 14:48:02;;;;;;;7.43;2.60;;;;;;;;;;4939160;28;20119;-94
2022/01/18 14:50:32;;;;;;;8.30;2.88;;;;;;;;;;4938929;28;20464;-94
2022/01/18 14:53:04;;;;;;;10.70;2.97;;;;;;;;;;4938700;28;20048;-94
2022/01/18 14:55:33;;;;;;;11.50;2.58;;;;;;;;;;4941506;28;20068;-93
2022/01/18 15:01:36;;;;;;;6.60;2.60;;;;;;;;;;4922282;29;20051;-94
2022/01/18 15:04:11;;;;;;;10.48;2.58;;;;;;;;;;4920309;29;20053;-95
2022/01/18 15:06:38;;;;;;;6.70;2.60;;;;;;;;;;4930077;28;20036;-95
2022/01/18 15:09:07;;;;;;;11.73;2.65;;;;;;;;;;4939669;28;20108;-94
2022/01/18 15:11:38;;;;;;;7.18;2.80;;;;;;;;;;4941390;28;20104;-94
2022/01/18 15:14:14;;;;;;;8.85;2.65;;;;;;;;;;4938264;28;20059;-94
2022/01/18 15:16:55;;;;;;;10.70;2.38;;;;;;;;;;4934242;29;20088;-94
2022/01/18 15:19:37;;;;;;;10.25;2.60;;;;;;;;;;4923474;29;20103;-93
2022/01/18 15:22:05;;;;;;;14.38;2.60;;;;;;;;;;4937679;29;20052;-93
2022/01/18 15:24:33;;;;;;;6.57;2.47;;;;;;;;;;4936935;29;20052;-94
2022/01/18 15:27:00;;;;;;;5.40;2.10;;;;;;;;;;4929855;28;20079;-93
2022/01/18 15:29:41;;;;;;;10.02;2.40;;;;;;;;;;4922407;29;20041;-94
2022/01/18 15:32:13;;;;;;;8.68;2.30;;;;;;;;;;4922962;29;20075;-93
2022/01/18 15:34:42;;;;;;;9.98;2.55;;;;;;;;;;4922580;29;20048;-94
2022/01/18 15:37:17;;;;;;;8.10;2.28;;;;;;;;;;4921830;29;20066;-93
2022/01/18 15:40:01;;;;;;;13.52;3.10;;;;;;;;;;4922150;29;20063;-95
2022/01/18 15:46:20;;;;;;;13.82;2.42;;;;;;;;;;4923530;29;20032;-94
2022/01/18 15:49:20;;;;;;;6.32;2.28;;;;;;;;;;4923238;29;20080;-93
2022/01/18 15:52:03;;;;;;;8.80;2.55;;;;;;;;;;4923626;29;20057;-93
2022/01/18 15:55:12;;;;;;;9.00;2.10;;;;;;;;;;4924089;28;20039;-93
2022/01/18 15:57:49;;;;;;;8.18;2.22;;;;;;;;;;4936050;28;20115;-92
2022/01/18 16:00:18;;;;;;;7.22;2.03;;;;;;;;;;4938659;28;20107;-93
2022/01/18 16:03:11;;;;;;;8.98;2.60;;;;;;;;;;4936243;28;20278;-93
2022/01/18 16:05:38;;;;;;;15.00;3.22;;;;;;;;;;4937315;28;20040;-93
2022/01/18 16:08:05;;;;;;;7.30;2.40;;;;;;;;;;4938815;28;20068;-93
2022/01/18 16:10:33;;;;;;;13.82;2.70;;;;;;;;;;4938986;28;20048;-93
2022/01/18 16:13:16;;;;;;;7.47;2.55;;;;;;;;;;4938875;28;20062;-94
2022/01/18 16:15:44;;;;;;;13.15;3.00;;;;;;;;;;4937634;28;20048;-93
2022/01/18 16:18:12;;;;;;;6.75;3.30;;;;;;;;;;4930549;28;20155;-94
2022/01/18 16:20:39;;;;;;;14.95;3.38;;;;;;;;;;4918156;29;20062;-94
2022/01/18 16:23:08;;;;;;;16.05;2.90;;;;;;;;;;4919704;29;20048;-93
2022/01/18 16:25:35;;;;;;;9.02;2.55;;;;;;;;;;4918597;29;20040;-94
2022/01/18 16:28:02;;;;;;;9.23;3.08;;;;;;;;;;4953384;28;20055;-93
2022/01/18 16:30:36;;;;;;;8.25;2.50;;;;;;;;;;4955521;28;20479;-93
2022/01/18 16:33:05;;;;;;;10.98;2.80;;;;;;;;;;4941079;28;20070;-92
2022/01/18 16:35:33;;;;;;;10.13;2.88;;;;;;;;;;4967781;23;20056;-94
2022/01/18 16:38:03;;;;;;;13.68;2.97;;;;;;;;;;4958147;29;20035;-95
2022/01/18 16:48:52;;;;;;;11.35;3.17;;;;;;;;;;5354500;23;20132;-94
2022/01/18 16:51:29;;;;;;;10.45;3.65;;;;;;;;;;4958057;28;20055;-94
2022/01/18 16:53:57;;;;;;;16.30;5.50;;;;;;;;;;4958833;28;20053;-94
2022/01/18 16:56:39;;;;;;;10.55;4.13;;;;;;;;;;4954811;28;20095;-95
2022/01/18 16:59:07;;;;;;;10.85;3.40;;;;;;;;;;4957290;28;20053;-95
2022/01/18 17:01:35;;;;;;;10.75;3.47;;;;;;;;;;4958374;28;20050;-94
2022/01/18 17:04:03;;;;;;;8.30;3.33;;;;;;;;;;4958465;28;20068;-94
2022/01/18 17:06:36;;;;;;;9.82;3.28;;;;;;;;;;4958318;28;20088;-94
2022/01/18 17:09:07;;;;;;;11.88;3.85;;;;;;;;;;4958476;28;20158;-94
2022/01/18 17:11:35;;;;;;;13.45;3.88;;;;;;;;;;4958192;29;20059;-94
2022/01/18 17:14:03;;;;;;;11.48;3.78;;;;;;;;;;4958354;28;20046;-94
2022/01/18 17:16:32;;;;;;;12.88;3.67;;;;;;;;;;4958863;28;20096;-94
2022/01/18 17:19:00;;;;;;;11.70;4.20;;;;;;;;;;4950699;28;20072;-94
2022/01/18 17:24:58;;;;;;;7.20;3.60;;;;;;;;;;4939828;28;20099;-94
2022/01/18 17:27:28;;;;;;;11.70;3.78;;;;;;;;;;4938208;28;20105;-94
2022/01/18 17:29:58;;;;;;;12.05;3.95;;;;;;;;;;4938881;28;20143;-94
2022/01/18 17:32:28;;;;;;;11.27;4.28;;;;;;;;;;4940433;28;20064;-95
2022/01/18 17:34:58;;;;;;;10.15;3.63;;;;;;;;;;4940309;28;20040;-95
2022/01/18 17:37:33;;;;;;;11.95;4.68;;;;;;;;;;4940826;28;20119;-94
2022/01/18 17:40:03;;;;;;;15.50;4.78;;;;;;;;;;4940206;28;20036;-93
2022/01/18 17:42:29;;;;;;;17.55;5.40;;;;;;;;;;4939936;28;20066;-95
2022/01/18 17:48:21;;;;;;;15.38;4.68;;;;;;;;;;4931012;28;20050;-95
2022/01/18 17:50:49;;;;;;;16.67;4.45;;;;;;;;;;4920122;29;20041;-94
2022/01/18 17:53:21;;;;;;;14.70;5.30;;;;;;;;;;4921146;29;20049;-94
2022/01/18 17:55:52;;;;;;;12.32;4.90;;;;;;;;;;4920891;29;20041;-95
2022/01/18 18:01:48;;;;;;;14.02;5.65;;;;;;;;;;4920528;29;20164;-95
2022/01/18 18:04:18;;;;;;;12.38;5.03;;;;;;;;;;4919872;29;20060;-94
2022/01/18 18:10:29;;;;;;;17.92;5.78;;;;;;;;;;4918518;29;20089;-94
2022/01/18 18:13:00;;;;;;;17.23;6.40;;;;;;;;;;4917266;29;20049;-94
2022/01/18 18:15:28;;;;;;;17.20;6.65;;;;;;;;;;4916200;29;20052;-94
2022/01/18 18:18:08;;;;;;;16.88;6.72;;;;;;;;;;4927262;29;20044;-93
2022/01/18 18:20:35;;;;;;;14.98;6.22;;;;;;;;;;4923907;29;20044;-94
2022/01/18 18:23:02;;;;;;;20.33;7.38;;;;;;;;;;4905827;29;20048;-92
2022/01/18 18:25:32;;;;;;;15.10;7.50;;;;;;;;;;4920418;29;20048;-92
2022/01/18 18:28:27;;;;;;;20.65;7.28;;;;;;;;;;4922252;29;20123;-93
2022/01/18 18:30:54;;;;;;;15.40;7.07;;;;;;;;;;4924141;29;20064;-92
2022/01/18 18:33:36;;;;;;;27.65;8.52;;;;;;;;;;4910586;29;20041;-92
2022/01/18 18:36:09;;;;;;;23.65;9.35;;;;;;;;;;4927769;29;20520;-92
2022/01/18 18:38:44;;;;;;;26.10;9.57;;;;;;;;;;4930465;29;20128;-92
2022/01/18 18:41:20;;;;;;;21.58;9.90;;;;;;;;;;4929688;29;20080;-93
2022/01/18 18:44:08;;;;;;;21.80;10.00;;;;;;;;;;4933911;28;20050;-93
2022/01/18 18:46:40;;;;;;;23.30;10.40;;;;;;;;;;4930462;28;20040;-93
2022/01/18 18:49:11;;;;;;;25.02;10.93;;;;;;;;;;4934234;28;20112;-92
2022/01/18 18:51:38;;;;;;;22.50;10.85;;;;;;;;;;4948641;28;20314;-92
2022/01/18 18:54:06;;;;;;;23.30;11.35;;;;;;;;;;4951810;29;20051;-94
2022/01/18 18:56:35;;;;;;;27.05;11.82;;;;;;;;;;4951788;29;20055;-93
2022/01/18 19:05:48;;;;;;;27.02;11.75;;;;;;;;;;4952068;29;20038;-94
2022/01/18 19:08:17;;;;;;;23.42;11.52;;;;;;;;;;4951231;28;20040;-93
2022/01/18 19:10:46;;;;;;;29.48;12.55;;;;;;;;;;4952955;29;20043;-93